Airfield :
LOGIN :

Register | Disclaimer

   EN    FR    IT 

 










Legend :    VFR   Marginal VFR   IFR   Intensive IFR   Very Intensive IFR
Visi :
Ceiling :
>= 8 km
>= 3000ft
5 to 8 km
1000 to 3000 ft
1500m to 5 km
500 to 1000 ft
800 to 1500m
200 to 500 ft
< 800m
< 200 ft
Symbols :   Thunderstorms  Fog  Heavy snow  Heavy precipitations  Wind > 20 kt
SIGMETs :     Misc.  Thunderstorms  Icing  Turbulence  Mountain Waves  Volcanic Ashes






- Airport Elevation : 74 ft
- IATA code : EIN


EHEH - Eindhoven

CURRENT METAR :
  • 290555Z AUTO 23012KT 190V260 9999 OVC017 15/12 Q1010 WHT BECMG 24015G25KT

EXPIRED METARs :
  • 290536Z AUTO 23012KT 190V260 9999 SCT018 BKN082 15/12 Q1010 WHT BECMG 24015G25KT
  • 290525Z AUTO 22012KT 190V270 9999 SCT084 15/12 Q1010 BLU BECMG 24015G25KT
  • 290455Z AUTO 22011KT 190V250 9999 SCT073 BKN084 BKN220 15/12 Q1010 BLU BECMG 24015G25KT
  • 290425Z AUTO 21013KT 180V260 9999 BKN076 15/12 Q1010 BLU BECMG 24015G25KT
  • 290355Z AUTO 22011KT 190V260 9999 NCD 15/11 Q1009 BLU
  • 290325Z AUTO 22011KT 180V260 9999 NCD 15/11 Q1009 BLU
  • 290320Z AUTO 21011KT 180V250 9999 FEW023 15/11 Q1009 BLU
  • 290308Z AUTO 21011KT 180V250 9999 SCT023 15/11 Q1009 WHT

TAF TAF EHEH
Valid from the 29 at 00:00 until the 30 at 06:00 UTC


282319Z 2900/3006 22012KT CAVOK
BECMG 2906/2908 24015G25KT
TEMPO 2908/2918 SCT020CB BKN030
BECMG 2915/2917 22007KT



MET'MAP, your aeronautical weather chart ! - Copyright ORBIFLY December 2007 - Disclaimer

ORBIFLY MET'MAP TEAM :

Programming & Development : Alexandra Zaïnal
Concept & original design : Baudouin d'Aumeries
Assistance for programming : Marc-Olivier Méhu
Technical & hardware support : Manuel Goepfert

Contact : metmap@orbifly.com




SOURCES & CREDITS :

   NOAA